»·PEaware :: ARH1 KBFL-KVCV

ARH1 :: KBFL-KVCV

FLIGHT INFORMATION

Flight Status: Arrived
Operator: Unknown
More flights by this operator :: More flights under this callsign
Pilot: Jason B. (17)
Aircraft: LOCKHEED L-049/749/1049 CONSTELLATION
(CONI)
More flights by this aircraft type
Origin: KBFL Meadows
United States
Destination: KVCV Socal Logistics
United States
More flights between these airports :: More routes between these airports
Route: +MEADO1 AMONT V197 PMD V386 APLES
File this flight plan on PilotEdge
Remarks: RTF ARH= Ark-Angel
Altitude:
(Current/Filed)
90ft
Speed:
(Current/Filed)
276kts
Departed: 11-Jan-12 07:27 PM
Arrived: 11-Jan-12 08:02 PM
Distance/Time
Traveled:
96nm/0:35
Distance/Time
To Go:
Arrived

Flight Plot

Page will automatically refresh every two minutes.


Map Options




Map Legend


Flown Route
Filed Route
Departure Airport
Arrival Airport
Navaid (VOR, NDB)
Fix

Horizontal Profiles

Position Reports

Time Latitude Longitude Heading Altitude Ground
Speed
11-Jan-12 19:16 35.437572 -119.054514 48 518ft 0kts
11-Jan-12 19:17 35.437572 -119.054514 48 518ft 0kts
11-Jan-12 19:18 35.437572 -119.054514 48 518ft 0kts
11-Jan-12 19:19 35.437572 -119.054514 48 518ft 0kts
11-Jan-12 19:20 35.437988 -119.054588 255 518ft 7kts
11-Jan-12 19:21 35.435502 -119.055908 132 518ft 15kts
11-Jan-12 19:22 35.432618 -119.052452 140 518ft 22kts
11-Jan-12 19:23 35.427925 -119.046794 130 518ft 25kts
11-Jan-12 19:24 35.425424 -119.045198 251 517ft 11kts
11-Jan-12 19:25 35.435402 -119.058124 315 528ft 141kts
11-Jan-12 19:26 35.468360 -119.096007 318 1835ft 169kts
11-Jan-12 19:27 35.497602 -119.139187 259 3235ft 171kts
11-Jan-12 19:28 35.465248 -119.152417 165 4267ft 176kts
11-Jan-12 19:29 35.428410 -119.119386 126 5587ft 176kts
11-Jan-12 19:30 35.397637 -119.070978 128 6901ft 181kts
11-Jan-12 19:31 35.365934 -119.022766 128 8175ft 185kts
11-Jan-12 19:32 35.332082 -118.972489 129 9005ft 212kts
11-Jan-12 19:33 35.290024 -118.911545 130 8994ft 251kts
11-Jan-12 19:34 35.247612 -118.851533 130 8992ft 261kts
11-Jan-12 19:35 35.196494 -118.780829 131 8991ft 269kts
11-Jan-12 19:36 35.145845 -118.712284 131 8990ft 273kts
11-Jan-12 19:37 35.096851 -118.647200 132 8990ft 274kts
11-Jan-12 19:38 35.044506 -118.578805 132 8961ft 276kts
11-Jan-12 19:39 34.992782 -118.512206 133 8958ft 276kts
11-Jan-12 19:40 34.939999 -118.445102 133 8958ft 275kts
11-Jan-12 19:41 34.886103 -118.380291 135 8958ft 275kts
11-Jan-12 19:42 34.874717 -118.366506 135 8958ft 275kts
11-Jan-12 19:43 34.799212 -118.273489 135 8971ft 277kts
11-Jan-12 19:44 34.754771 -118.218220 134 8968ft 274kts
11-Jan-12 19:45 34.703784 -118.154446 132 8966ft 271kts
11-Jan-12 19:46 34.651653 -118.088862 128 8962ft 269kts
11-Jan-12 19:47 34.641708 -118.004619 73 8328ft 256kts
11-Jan-12 19:48 34.659831 -117.922704 73 6995ft 255kts
11-Jan-12 19:49 34.678449 -117.844798 73 6975ft 229kts
11-Jan-12 19:50 34.695434 -117.771665 73 6970ft 223kts
11-Jan-12 19:51 34.711935 -117.699306 73 6408ft 223kts
11-Jan-12 19:52 34.728302 -117.627391 73 5744ft 220kts
11-Jan-12 19:53 34.744064 -117.556358 73 5010ft 215kts
11-Jan-12 19:54 34.758858 -117.487949 73 5021ft 228kts
11-Jan-12 19:55 34.772836 -117.421233 89 5004ft 222kts
11-Jan-12 19:56 34.729841 -117.389415 176 4908ft 153kts
11-Jan-12 19:57 34.692354 -117.387598 178 4557ft 139kts
11-Jan-12 19:58 34.654511 -117.387073 178 3832ft 137kts
11-Jan-12 19:59 34.615956 -117.386706 177 3030ft 138kts
11-Jan-12 20:00 34.597122 -117.385559 95 2896ft 0kts
11-Jan-12 20:01 34.597122 -117.385559 95 2896ft 0kts
11-Jan-12 20:03 34.597120 -117.385543 95 2896ft 1kts
11-Jan-12 20:04 34.596822 -117.384152 312 2895ft 0kts
11-Jan-12 20:05 34.596822 -117.384152 312 2895ft 0kts
11-Jan-12 20:06 34.596822 -117.384152 312 2895ft 0kts

Navigation Log

Ident Type
Flight plan parsing failed, navigation log unavailable